Time;durP1;ratioP1;P1;durP2;ratioP2;P2;SDS_P1;SDS_P2;PMS_P1;PMS_P2;Temp;Humidity;BMP_temperature;BMP_pressure;BME280_temperature;BME280_humidity;BME280_pressure;Samples;Min_cycle;Max_cycle;Signal;HPM_P1;HPM_P2
2023/08/24 00:01:40;;;;;;;19.73;17.95;;;;;;;22.26;54.57;100427.69;5032436;28;96865;-84
2023/08/24 00:04:07;;;;;;;19.95;18.08;;;;;;;22.30;54.30;100432.63;5032141;28;98640;-84
2023/08/24 00:06:33;;;;;;;19.58;17.65;;;;;;;22.34;54.31;100430.53;5014357;28;98778;-84
2023/08/24 00:08:59;;;;;;;19.75;17.85;;;;;;;22.30;54.60;100426.44;5032144;28;96791;-84
2023/08/24 00:11:25;;;;;;;19.23;17.67;;;;;;;22.27;54.71;100418.66;5018137;28;96726;-84
2023/08/24 00:13:51;;;;;;;19.25;17.60;;;;;;;22.31;54.51;100420.97;5031682;28;99168;-85
2023/08/24 00:16:17;;;;;;;20.05;18.65;;;;;;;22.32;54.59;100425.34;5020030;27;98251;-84
2023/08/24 00:18:42;;;;;;;19.38;17.65;;;;;;;22.23;54.75;100425.25;5043868;27;97080;-84
2023/08/24 00:21:08;;;;;;;20.00;18.60;;;;;;;22.22;54.67;100418.19;5032167;28;96929;-84
2023/08/24 00:23:34;;;;;;;21.13;19.08;;;;;;;22.06;54.65;100399.84;5032050;28;98972;-84
2023/08/24 00:25:59;;;;;;;20.08;18.42;;;;;;;22.20;54.45;100422.81;5044398;27;98389;-85
2023/08/24 00:28:25;;;;;;;20.67;19.02;;;;;;;22.15;54.50;100423.16;5040064;27;96689;-84
2023/08/24 00:30:53;;;;;;;20.63;19.02;;;;;;;22.13;54.62;100431.28;5027192;28;97336;-84
2023/08/24 00:33:19;;;;;;;20.65;19.00;;;;;;;22.07;54.65;100417.56;5035264;28;98190;-84
2023/08/24 00:35:45;;;;;;;19.60;17.77;;;;;;;22.09;54.84;100424.50;5035303;28;98695;-84
2023/08/24 00:38:10;;;;;;;19.98;18.33;;;;;;;22.01;55.08;100429.59;5016901;28;96734;-84
2023/08/24 00:40:38;;;;;;;19.70;17.85;;;;;;;22.00;55.25;100430.59;5024068;27;96833;-84
2023/08/24 00:43:04;;;;;;;20.00;18.35;;;;;;;22.00;55.20;100427.91;5011064;28;98770;-84
2023/08/24 00:45:30;;;;;;;19.73;18.02;;;;;;;21.98;55.44;100424.50;5043243;27;98829;-84
2023/08/24 00:47:56;;;;;;;19.42;17.83;;;;;;;21.97;55.45;100427.31;5011772;27;96874;-84
2023/08/24 00:50:21;;;;;;;20.77;19.00;;;;;;;21.96;55.59;100430.94;5017078;28;96999;-84
2023/08/24 00:52:48;;;;;;;19.52;17.85;;;;;;;21.89;55.57;100434.09;5016062;28;97731;-84
2023/08/24 00:55:14;;;;;;;19.63;17.70;;;;;;;21.93;55.63;100429.34;5035197;28;98673;-84
2023/08/24 00:57:43;;;;;;;19.02;17.45;;;;;;;21.89;55.68;100430.59;5020817;28;97099;-84
2023/08/24 01:00:13;;;;;;;19.70;18.08;;;;;;;21.82;55.56;100424.06;5025560;28;96820;-84
2023/08/24 01:02:39;;;;;;;18.67;17.17;;;;;;;21.89;55.59;100431.44;5030544;28;98805;-84
2023/08/24 01:05:06;;;;;;;22.40;20.35;;;;;;;21.89;55.74;100433.25;5034857;28;98413;-84
2023/08/24 01:07:36;;;;;;;19.45;17.63;;;;;;;21.92;55.75;100433.88;5035195;28;96756;-84
2023/08/24 01:10:06;;;;;;;20.05;18.38;;;;;;;21.87;55.94;100428.03;5003254;28;96925;-84
2023/08/24 01:12:59;;;;;;;21.00;19.33;;;;;;;21.90;55.81;100435.81;5019884;28;97884;-84
2023/08/24 01:15:45;;;;;;;20.88;19.17;;;;;;;21.82;55.98;100448.09;5003637;28;100693;-83
2023/08/24 01:18:15;;;;;;;20.40;18.83;;;;;;;21.77;56.25;100435.09;5003128;28;97045;-84
2023/08/24 01:20:41;;;;;;;18.92;17.50;;;;;;;21.75;55.96;100426.34;5015027;28;96878;-84
2023/08/24 01:23:18;;;;;;;20.48;18.75;;;;;;;21.79;56.15;100437.66;4993411;28;98853;-85
2023/08/24 01:25:54;;;;;;;21.42;18.80;;;;;;;21.75;56.17;100434.34;5001394;28;99013;-84
2023/08/24 01:28:23;;;;;;;20.48;18.65;;;;;;;21.75;56.29;100436.19;5005170;28;96855;-84
2023/08/24 01:30:48;;;;;;;20.35;18.77;;;;;;;21.75;55.94;100431.69;5013246;28;96804;-84
2023/08/24 01:33:14;;;;;;;19.52;17.73;;;;;;;21.75;56.14;100431.69;4976406;28;100742;-84
2023/08/24 01:35:40;;;;;;;19.33;17.95;;;;;;;21.72;56.32;100434.59;5008049;28;100389;-84
2023/08/24 01:38:07;;;;;;;19.35;17.85;;;;;;;21.67;56.36;100437.66;5013227;28;96714;-84
2023/08/24 01:40:48;;;;;;;20.08;18.38;;;;;;;21.64;56.50;100435.22;4992643;28;96981;-84
2023/08/24 01:43:14;;;;;;;19.17;17.80;;;;;;;21.65;56.75;100428.91;5000310;28;100790;-84
2023/08/24 01:45:41;;;;;;;20.10;18.38;;;;;;;21.68;56.76;100433.16;5013186;28;100134;-84
2023/08/24 01:48:07;;;;;;;20.80;18.95;;;;;;;21.67;56.56;100429.63;5013268;28;96845;-84
2023/08/24 01:50:33;;;;;;;20.90;18.70;;;;;;;21.65;56.52;100418.22;5013227;28;96976;-84
2023/08/24 01:52:59;;;;;;;19.13;17.65;;;;;;;21.69;56.60;100426.81;4998917;28;99042;-84
2023/08/24 01:55:25;;;;;;;19.77;17.60;;;;;;;21.61;56.54;100416.75;5034075;28;98448;-84
2023/08/24 01:57:51;;;;;;;20.40;18.65;;;;;;;21.65;56.86;100422.72;5015029;27;96789;-84
2023/08/24 02:00:16;;;;;;;19.63;17.92;;;;;;;21.66;56.79;100425.25;5021022;28;96820;-84
2023/08/24 02:02:46;;;;;;;18.92;17.60;;;;;;;21.67;56.77;100429.63;5016772;28;100678;-84
2023/08/24 02:05:11;;;;;;;19.67;18.17;;;;;;;21.59;56.76;100412.50;5022327;28;100172;-84
2023/08/24 02:07:39;;;;;;;20.08;18.48;;;;;;;21.60;56.92;100416.88;5014008;28;96850;-84
2023/08/24 02:10:05;;;;;;;20.17;18.52;;;;;;;21.62;56.88;100417.59;5012434;28;97000;-84
2023/08/24 02:12:31;;;;;;;19.95;18.50;;;;;;;21.60;56.84;100419.53;5013228;28;97479;-84
2023/08/24 02:14:56;;;;;;;20.50;18.75;;;;;;;21.55;56.96;100419.03;5006149;28;100405;-84
2023/08/24 02:17:22;;;;;;;19.80;18.25;;;;;;;21.55;57.01;100414.53;4999536;28;96800;-84
2023/08/24 02:19:47;;;;;;;21.02;19.08;;;;;;;21.47;57.28;100420.50;5012296;28;96877;-83
2023/08/24 02:22:13;;;;;;;20.83;19.02;;;;;;;21.40;57.61;100419.28;5023966;28;98803;-84
2023/08/24 02:24:39;;;;;;;20.63;18.88;;;;;;;21.33;57.36;100411.84;5015446;28;100478;-84
2023/08/24 02:27:04;;;;;;;20.48;18.40;;;;;;;21.41;57.33;100420.09;5012233;28;96737;-84
2023/08/24 02:29:30;;;;;;;20.63;18.73;;;;;;;21.39;57.43;100411.41;5013713;28;96823;-84
2023/08/24 02:31:55;;;;;;;21.33;19.38;;;;;;;21.38;57.60;100420.34;5012035;28;99128;-84
2023/08/24 02:34:21;;;;;;;21.40;19.50;;;;;;;21.31;57.47;100411.94;5012264;28;100768;-84
2023/08/24 02:36:46;;;;;;;20.27;18.70;;;;;;;21.34;57.72;100419.72;5013653;28;96747;-84
2023/08/24 02:39:12;;;;;;;20.88;18.67;;;;;;;21.38;57.72;100417.69;5013460;28;96870;-84
2023/08/24 02:41:38;;;;;;;21.50;19.40;;;;;;;21.24;57.75;100410.72;5012555;28;98975;-84
2023/08/24 02:44:03;;;;;;;22.70;19.23;;;;;;;21.30;57.47;100406.75;5011700;28;98523;-84
2023/08/24 02:46:29;;;;;;;20.77;18.77;;;;;;;21.39;57.36;100416.72;5013267;28;96785;-84
2023/08/24 02:48:55;;;;;;;21.10;19.20;;;;;;;21.37;57.47;100413.31;5013368;28;97050;-84
2023/08/24 02:51:23;;;;;;;19.98;18.38;;;;;;;21.37;57.78;100414.16;5010508;28;100688;-84
2023/08/24 02:53:50;;;;;;;20.17;18.42;;;;;;;21.39;57.57;100419.41;5012868;28;98520;-84
2023/08/24 02:56:15;;;;;;;20.60;18.85;;;;;;;21.30;57.57;100406.75;5013327;28;96891;-84
2023/08/24 02:58:41;;;;;;;20.92;18.83;;;;;;;21.24;57.76;100402.72;5012508;28;97094;-84
2023/08/24 03:01:07;;;;;;;22.02;19.88;;;;;;;21.29;57.95;100415.69;4998894;28;97589;-84
2023/08/24 03:03:34;;;;;;;21.13;19.30;;;;;;;21.22;57.95;100415.31;5013018;28;98330;-84
2023/08/24 03:06:02;;;;;;;21.80;19.65;;;;;;;21.17;58.14;100413.00;5012611;28;96721;-84
2023/08/24 03:08:29;;;;;;;21.25;19.45;;;;;;;21.18;58.43;100424.56;5013221;28;96852;-84
2023/08/24 03:10:55;;;;;;;21.25;19.20;;;;;;;21.13;58.54;100424.06;5011216;28;100570;-84
2023/08/24 03:13:21;;;;;;;22.90;20.58;;;;;;;21.13;58.43;100430.22;5006909;28;98316;-84
2023/08/24 03:15:46;;;;;;;21.75;19.85;;;;;;;21.07;58.47;100408.50;5003448;28;96816;-84
2023/08/24 03:18:13;;;;;;;22.65;20.40;;;;;;;21.14;58.34;100412.41;5012988;28;96941;-84
2023/08/24 03:20:39;;;;;;;21.75;19.67;;;;;;;21.13;58.55;100416.88;5001476;28;99055;-84
2023/08/24 03:23:06;;;;;;;22.30;20.35;;;;;;;21.14;58.48;100407.91;5007355;28;100748;-84
2023/08/24 03:25:35;;;;;;;23.13;20.80;;;;;;;21.11;58.50;100412.63;5008473;28;96803;-84
2023/08/24 03:28:02;;;;;;;32.83;21.38;;;;;;;21.07;58.52;100409.34;5003527;28;96869;-84
2023/08/24 03:30:27;;;;;;;21.45;19.65;;;;;;;21.08;58.54;100404.88;5011773;28;99105;-84
2023/08/24 03:32:53;;;;;;;21.35;19.58;;;;;;;20.99;58.86;100403.75;5003804;28;99117;-84
2023/08/24 03:35:18;;;;;;;22.55;20.17;;;;;;;20.97;58.72;100406.53;5006112;28;96847;-84
2023/08/24 03:37:44;;;;;;;22.13;19.60;;;;;;;20.89;58.86;100402.75;5012691;28;96893;-84
2023/08/24 03:40:10;;;;;;;21.48;19.65;;;;;;;20.99;59.07;100417.09;5012522;28;98633;-84
2023/08/24 03:42:35;;;;;;;21.73;19.80;;;;;;;20.91;59.02;100404.31;5011919;28;98279;-84
2023/08/24 03:45:01;;;;;;;23.30;21.05;;;;;;;20.96;58.99;100414.66;5011496;28;96882;-84
2023/08/24 03:47:26;;;;;;;24.83;19.60;;;;;;;20.91;58.88;100404.31;5013233;28;98293;-84
2023/08/24 03:49:52;;;;;;;22.52;20.10;;;;;;;20.99;59.03;100415.25;5012285;28;99246;-84
2023/08/24 03:52:17;;;;;;;23.08;19.75;;;;;;;20.92;58.99;100408.72;5010546;28;100354;-84
2023/08/24 03:54:43;;;;;;;21.50;19.33;;;;;;;20.97;58.96;100413.69;5010804;28;97090;-84
2023/08/24 03:57:08;;;;;;;22.40;20.45;;;;;;;20.99;59.14;100414.41;5012376;28;96658;-84
2023/08/24 03:59:35;;;;;;;22.63;20.65;;;;;;;20.96;58.97;100407.50;5010814;28;100641;-84
2023/08/24 04:02:02;;;;;;;22.70;20.50;;;;;;;20.91;59.14;100411.47;5010804;28;100129;-84
2023/08/24 04:04:28;;;;;;;21.48;19.55;;;;;;;20.92;59.17;100424.72;5014763;28;96807;-84
2023/08/24 04:06:53;;;;;;;22.20;20.25;;;;;;;20.91;59.21;100422.16;5014512;28;96894;-84
2023/08/24 04:09:19;;;;;;;22.15;19.80;;;;;;;20.90;59.42;100418.63;5020835;28;99192;-84
2023/08/24 04:11:46;;;;;;;20.73;19.33;;;;;;;21.00;59.07;100430.31;5017704;28;100685;-84
2023/08/24 04:14:14;;;;;;;21.98;19.98;;;;;;;21.01;58.87;100413.34;5017859;28;96738;-84
2023/08/24 04:16:41;;;;;;;22.33;20.27;;;;;;;21.08;58.82;100428.88;5035739;28;96814;-84
2023/08/24 04:19:07;;;;;;;22.35;20.35;;;;;;;20.98;58.80;100410.06;5035051;28;98597;-84
2023/08/24 04:21:33;;;;;;;22.00;20.15;;;;;;;21.08;58.73;100412.88;5035288;28;98721;-84
2023/08/24 04:23:59;;;;;;;21.48;19.30;;;;;;;21.06;58.80;100420.13;5035965;28;96961;-84
2023/08/24 04:26:24;;;;;;;21.98;20.08;;;;;;;21.11;58.65;100428.66;5035238;28;97101;-84
2023/08/24 04:28:50;;;;;;;21.80;20.10;;;;;;;21.18;58.69;100437.91;5035353;27;99017;-84
2023/08/24 04:31:15;;;;;;;21.73;19.92;;;;;;;21.16;58.41;100429.16;5035279;28;98322;-84
2023/08/24 04:33:41;;;;;;;22.25;20.30;;;;;;;21.23;58.41;100446.38;5035271;28;96753;-84
2023/08/24 04:36:07;;;;;;;21.30;19.48;;;;;;;21.36;58.09;100447.19;5035875;27;96893;-84
2023/08/24 04:38:32;;;;;;;22.63;20.58;;;;;;;21.48;57.78;100437.38;5035302;27;98571;-84
2023/08/24 04:40:58;;;;;;;21.58;19.70;;;;;;;21.56;57.43;100428.78;5035047;28;98859;-84
2023/08/24 04:43:24;;;;;;;23.05;20.95;;;;;;;21.75;56.98;100450.38;5034880;28;96906;-84
2023/08/24 04:45:54;;;;;;;21.90;20.15;;;;;;;21.86;56.92;100447.72;5021301;28;96878;-84
2023/08/24 04:48:21;;;;;;;21.97;20.10;;;;;;;22.03;56.27;100457.06;5035298;28;98786;-83
2023/08/24 04:50:47;;;;;;;22.17;20.23;;;;;;;22.15;55.98;100458.75;5034776;28;98623;-84
2023/08/24 04:53:14;;;;;;;21.67;19.40;;;;;;;22.24;55.82;100441.16;5035251;28;96926;-84
2023/08/24 04:55:41;;;;;;;22.75;20.42;;;;;;;22.45;55.16;100449.25;5034962;28;96926;-83
2023/08/24 04:58:10;;;;;;;21.60;19.67;;;;;;;22.58;54.95;100449.09;5034769;28;98906;-83
2023/08/24 05:00:36;;;;;;;22.27;20.35;;;;;;;22.74;54.65;100456.69;5035216;28;98785;-83
2023/08/24 05:03:03;;;;;;;21.67;19.98;;;;;;;22.94;53.88;100458.56;5035183;27;98203;-83
2023/08/24 05:05:29;;;;;;;22.05;20.20;;;;;;;23.08;53.70;100444.06;5035190;28;96786;-84
2023/08/24 05:07:55;;;;;;;22.75;20.90;;;;;;;23.23;53.30;100442.75;5034216;28;98838;-83
2023/08/24 05:10:21;;;;;;;30.02;21.40;;;;;;;23.40;53.06;100452.03;5033759;28;98877;-83
2023/08/24 05:12:47;;;;;;;24.02;21.27;;;;;;;23.53;52.55;100445.59;5034747;28;97254;-84
2023/08/24 05:15:13;;;;;;;21.60;19.70;;;;;;;23.75;52.06;100444.63;5033907;27;96833;-84
2023/08/24 05:17:40;;;;;;;21.85;20.05;;;;;;;23.95;51.68;100452.63;5034561;28;98617;-83
2023/08/24 05:20:07;;;;;;;21.73;19.88;;;;;;;24.17;50.95;100446.22;5029130;28;97760;-83
2023/08/24 05:22:33;;;;;;;22.17;20.58;;;;;;;24.47;50.29;100436.41;5026169;27;97324;-83
2023/08/24 05:24:59;;;;;;;22.02;20.23;;;;;;;25.11;49.09;100448.44;5035058;27;96818;-83
2023/08/24 05:27:24;;;;;;;22.33;20.27;;;;;;;25.67;47.34;100449.47;5019885;28;99230;-83
2023/08/24 05:29:49;;;;;;;22.00;20.30;;;;;;;26.52;45.81;100444.84;5016474;28;98686;-83
2023/08/24 05:32:15;;;;;;;21.75;19.67;;;;;;;27.52;43.39;100439.16;5034025;28;96824;-84
2023/08/24 05:34:40;;;;;;;21.55;19.75;;;;;;;28.94;40.83;100457.38;5034565;28;96961;-84
2023/08/24 05:37:06;;;;;;;21.02;19.52;;;;;;;29.97;39.11;100444.09;5034107;28;99418;-84
2023/08/24 05:39:31;;;;;;;22.75;20.98;;;;;;;30.94;37.33;100446.44;5034406;28;98606;-83
2023/08/24 05:41:57;;;;;;;21.42;19.40;;;;;;;31.82;35.72;100442.19;5034301;28;96759;-83
2023/08/24 05:44:22;;;;;;;21.65;19.88;;;;;;;32.57;34.90;100441.06;5034400;28;98138;-84
2023/08/24 05:46:48;;;;;;;21.45;19.60;;;;;;;33.32;33.26;100444.28;5033928;28;98846;-83
2023/08/24 05:49:14;;;;;;;22.58;20.33;;;;;;;33.89;32.44;100439.63;5034353;28;98609;-84
2023/08/24 05:51:39;;;;;;;21.35;19.85;;;;;;;34.54;31.64;100442.84;5034178;28;96772;-84
2023/08/24 05:54:05;;;;;;;21.83;19.83;;;;;;;35.10;30.72;100450.72;5033988;28;96830;-84
2023/08/24 05:56:30;;;;;;;24.25;19.92;;;;;;;35.57;30.30;100446.09;5033184;28;99188;-84
2023/08/24 05:58:58;;;;;;;21.67;20.05;;;;;;;36.01;29.49;100449.94;5033963;28;98515;-84
2023/08/24 06:01:24;;;;;;;20.65;19.20;;;;;;;36.45;28.96;100440.97;5034100;28;96803;-84
2023/08/24 06:03:50;;;;;;;20.35;18.80;;;;;;;36.98;28.31;100452.63;5034093;28;96908;-84
2023/08/24 06:06:15;;;;;;;21.20;19.17;;;;;;;37.50;27.79;100453.25;5033775;28;98992;-84
2023/08/24 06:08:41;;;;;;;20.80;19.25;;;;;;;37.79;27.25;100452.50;5033831;28;98624;-84
2023/08/24 06:11:07;;;;;;;20.15;18.45;;;;;;;38.27;26.51;100459.13;5033149;27;96631;-84
2023/08/24 06:13:32;;;;;;;20.13;17.98;;;;;;;38.70;26.02;100458.13;5034560;28;96828;-84
2023/08/24 06:15:58;;;;;;;20.15;18.52;;;;;;;39.09;25.62;100461.31;5033541;28;98604;-85
2023/08/24 06:18:23;;;;;;;20.42;18.75;;;;;;;39.17;25.70;100450.00;5015851;28;98207;-84
2023/08/24 06:20:49;;;;;;;19.38;17.98;;;;;;;39.30;25.43;100469.00;5021895;28;96827;-84
2023/08/24 06:23:18;;;;;;;19.23;17.92;;;;;;;39.54;25.19;100461.59;5030861;28;96824;-84
2023/08/24 06:25:44;;;;;;;19.58;18.05;;;;;;;39.32;25.35;100458.63;5029356;28;99114;-84
2023/08/24 06:28:10;;;;;;;20.77;19.23;;;;;;;39.38;25.26;100467.81;5021348;28;98650;-84
2023/08/24 06:30:47;;;;;;;20.20;18.70;;;;;;;38.79;25.60;100464.09;5031609;28;96707;-84
2023/08/24 06:33:12;;;;;;;19.40;17.98;;;;;;;38.33;26.39;100460.91;5033820;27;96739;-84
2023/08/24 06:35:38;;;;;;;21.38;19.13;;;;;;;37.83;26.71;100459.19;5033262;28;99248;-84
2023/08/24 06:38:04;;;;;;;20.23;18.73;;;;;;;37.95;26.90;100455.72;5033625;28;98575;-84
2023/08/24 06:40:30;;;;;;;19.98;18.40;;;;;;;38.44;26.61;100454.69;5033817;28;96872;-85
2023/08/24 06:42:56;;;;;;;19.50;18.15;;;;;;;39.93;24.83;100447.34;5033585;28;96869;-84
2023/08/24 06:45:22;;;;;;;19.88;18.35;;;;;;;41.29;23.34;100436.38;5032935;28;98829;-84
2023/08/24 06:47:48;;;;;;;19.60;18.20;;;;;;;42.21;22.72;100439.53;5018988;28;98561;-84
2023/08/24 06:50:14;;;;;;;18.73;17.38;;;;;;;42.92;21.85;100433.94;5033749;28;96871;-85
2023/08/24 06:52:41;;;;;;;18.55;17.25;;;;;;;43.67;21.27;100433.91;5033178;28;96963;-84
2023/08/24 06:55:08;;;;;;;20.17;18.67;;;;;;;44.16;20.49;100433.56;5033129;27;99312;-84
2023/08/24 06:57:34;;;;;;;19.58;17.88;;;;;;;44.62;20.12;100433.66;5033055;27;98307;-82
2023/08/24 07:00:00;;;;;;;20.23;18.63;;;;;;;45.06;19.84;100427.56;5033551;28;96817;-84
2023/08/24 07:02:25;;;;;;;21.70;20.08;;;;;;;45.39;19.69;100426.16;5033644;28;96785;-83
2023/08/24 07:04:51;;;;;;;20.65;19.35;;;;;;;45.58;19.95;100424.44;5032628;27;98558;-83
2023/08/24 07:07:17;;;;;;;20.35;18.52;;;;;;;45.90;18.96;100427.97;5032945;28;98336;-82
2023/08/24 07:09:42;;;;;;;20.27;18.75;;;;;;;46.64;18.65;100426.13;5032222;28;96849;-83
2023/08/24 07:12:10;;;;;;;20.05;18.70;;;;;;;46.92;18.53;100417.00;5033070;28;96770;-82
2023/08/24 07:14:38;;;;;;;20.50;18.83;;;;;;;47.26;18.17;100432.78;5032704;27;99282;-83
2023/08/24 07:17:06;;;;;;;20.63;19.23;;;;;;;47.74;17.98;100429.19;5014813;28;98353;-83
2023/08/24 07:19:31;;;;;;;20.45;18.98;;;;;;;48.19;17.54;100429.75;5033086;27;96768;-83
2023/08/24 07:21:57;;;;;;;19.08;17.88;;;;;;;48.68;17.42;100437.63;5039632;27;96866;-83
2023/08/24 07:24:26;;;;;;;20.00;18.60;;;;;;;49.00;16.77;100424.84;5040089;27;99045;-83
2023/08/24 07:26:54;;;;;;;21.05;19.55;;;;;;;48.78;16.65;100427.44;5018533;28;98698;-83
2023/08/24 07:29:21;;;;;;;20.92;19.33;;;;;;;49.01;16.52;100431.25;5025533;28;96777;-83
2023/08/24 07:31:46;;;;;;;19.25;18.05;;;;;;;49.56;16.34;100425.72;5026472;27;96884;-83
2023/08/24 07:34:12;;;;;;;21.85;19.70;;;;;;;49.88;16.28;100416.41;5032047;28;98580;-83
2023/08/24 07:36:37;;;;;;;20.30;18.77;;;;;;;50.08;15.70;100415.16;5032278;27;98887;-83
2023/08/24 07:39:03;;;;;;;20.35;18.92;;;;;;;50.34;15.80;100425.75;5036036;28;96784;-83
2023/08/24 07:41:28;;;;;;;20.23;18.80;;;;;;;50.63;15.54;100439.28;5036524;28;96906;-83
2023/08/24 07:43:54;;;;;;;18.98;17.77;;;;;;;50.86;15.44;100435.31;5035989;28;99126;-83
2023/08/24 07:46:19;;;;;;;20.85;19.02;;;;;;;51.21;15.13;100434.69;5035950;28;98732;-83
2023/08/24 07:48:45;;;;;;;18.80;17.60;;;;;;;51.36;15.70;100432.31;5036321;27;96764;-82
2023/08/24 07:51:11;;;;;;;19.75;18.35;;;;;;;51.80;14.79;100427.69;5036646;28;96806;-83
2023/08/24 07:53:36;;;;;;;20.30;18.90;;;;;;;51.64;14.91;100434.88;5036091;28;98899;-83
2023/08/24 07:56:02;;;;;;;21.15;19.63;;;;;;;51.86;14.97;100433.13;5035965;28;98625;-83
2023/08/24 07:58:28;;;;;;;20.27;18.73;;;;;;;51.76;14.90;100432.28;5035610;28;96703;-83
2023/08/24 08:00:53;;;;;;;20.33;18.92;;;;;;;52.57;14.58;100435.63;5034853;28;97344;-83
2023/08/24 08:03:20;;;;;;;20.40;18.90;;;;;;;53.04;14.54;100430.16;5022910;27;98861;-83
2023/08/24 08:05:47;;;;;;;21.45;19.80;;;;;;;53.60;14.13;100431.69;5035960;27;98692;-83
2023/08/24 08:08:15;;;;;;;20.23;18.83;;;;;;;54.35;13.05;100445.09;5035901;27;96823;-83
2023/08/24 08:10:41;;;;;;;;;;;;;;;54.62;12.63;100438.03;5036076;28;96895;-83
2023/08/24 08:13:07;;;;;;;20.52;18.95;;;;;;;54.99;12.48;100445.78;5035733;27;98572;-83
2023/08/24 08:15:33;;;;;;;20.05;18.63;;;;;;;55.65;12.38;100436.34;5036114;28;98406;-83
2023/08/24 08:17:58;;;;;;;20.27;18.77;;;;;;;56.53;11.34;100428.97;5035908;28;97067;-83
2023/08/24 08:20:24;;;;;;;19.73;18.42;;;;;;;56.92;11.57;100438.47;5017616;28;96853;-83
2023/08/24 08:22:50;;;;;;;21.08;19.38;;;;;;;57.37;11.16;100437.22;5035197;28;98696;-83
2023/08/24 08:25:17;;;;;;;19.77;18.40;;;;;;;57.20;11.04;100434.78;5037406;27;98337;-83
2023/08/24 08:27:43;;;;;;;20.52;18.63;;;;;;;57.78;10.74;100442.59;5047830;27;96772;-84
2023/08/24 08:30:10;;;;;;;19.70;18.40;;;;;;;58.36;10.69;100433.38;5035894;28;96906;-83
2023/08/24 08:32:35;;;;;;;20.42;18.75;;;;;;;58.78;10.62;100435.41;5029185;28;98988;-84
2023/08/24 08:35:01;;;;;;;20.05;18.55;;;;;;;59.36;10.43;100444.50;5027973;28;98345;-84
2023/08/24 08:37:27;;;;;;;20.40;18.80;;;;;;;59.90;10.29;100430.34;5035666;27;96708;-83
2023/08/24 08:39:53;;;;;;;20.70;19.30;;;;;;;60.20;9.27;100422.66;5046588;27;96818;-84
2023/08/24 08:42:19;;;;;;;19.58;17.92;;;;;;;60.36;9.79;100433.75;5038962;27;98921;-84
2023/08/24 08:44:46;;;;;;;20.70;19.17;;;;;;;60.89;9.13;100432.66;5036004;28;98715;-84
2023/08/24 08:47:11;;;;;;;21.93;20.43;;;;;;;60.82;9.32;100433.44;5034814;28;96772;-85
2023/08/24 08:49:38;;;;;;;25.27;23.58;;;;;;;61.28;9.02;100430.16;5011110;28;96858;-84
2023/08/24 08:52:05;;;;;;;23.85;22.15;;;;;;;61.50;8.89;100433.97;5027689;27;98934;-84
2023/08/24 08:54:32;;;;;;;24.30;22.73;;;;;;;61.86;8.73;100425.69;5044990;27;98482;-84
2023/08/24 08:56:59;;;;;;;21.52;20.00;;;;;;;61.95;8.62;100414.78;5008210;28;96809;-84
2023/08/24 08:59:30;;;;;;;20.92;19.38;;;;;;;62.29;8.31;100431.56;5017237;28;97031;-84
2023/08/24 09:01:56;;;;;;;22.13;20.70;;;;;;;62.42;8.77;100424.28;5016949;28;98606;-84
2023/08/24 09:04:23;;;;;;;20.03;18.80;;;;;;;62.29;8.20;100425.03;5035142;27;98545;-85
2023/08/24 09:06:49;;;;;;;21.33;19.90;;;;;;;61.99;8.48;100415.59;5035449;28;96908;-85
2023/08/24 09:09:15;;;;;;;21.23;19.67;;;;;;;61.69;8.56;100415.88;5035617;28;96831;-85
2023/08/24 09:11:42;;;;;;;20.83;19.42;;;;;;;61.39;9.02;100415.25;5016298;28;98846;-85
2023/08/24 09:14:07;;;;;;;20.27;18.88;;;;;;;61.39;9.59;100409.56;5035273;28;97694;-85
2023/08/24 09:16:33;;;;;;;21.13;19.83;;;;;;;61.04;9.23;100419.44;5035228;28;96724;-85
2023/08/24 09:18:58;;;;;;;20.52;19.15;;;;;;;59.94;9.22;100417.88;5017277;28;97229;-84
2023/08/24 09:21:25;;;;;;;20.48;19.00;;;;;;;59.56;9.26;100419.78;5034450;27;98199;-84
2023/08/24 09:23:55;;;;;;;20.92;19.48;;;;;;;58.66;10.19;100416.63;5026755;28;98327;-85
2023/08/24 09:26:33;;;;;;;21.02;19.35;;;;;;;56.13;11.06;100417.72;5018665;27;96791;-86
2023/08/24 09:29:00;;;;;;;19.60;18.20;;;;;;;52.38;13.61;100399.59;5034329;27;96874;-85
2023/08/24 09:31:37;;;;;;;19.10;17.70;;;;;;;49.42;15.33;100408.19;5034907;27;98956;-85
2023/08/24 09:34:03;;;;;;;19.83;18.50;;;;;;;47.44;17.16;100400.66;5034918;27;97783;-85
2023/08/24 09:36:33;;;;;;;18.80;17.60;;;;;;;46.11;18.43;100410.09;5034504;27;96733;-87
2023/08/24 09:39:00;;;;;;;19.75;18.45;;;;;;;44.75;18.96;100402.72;5035707;28;96793;-87
2023/08/24 09:41:39;;;;;;;19.33;18.02;;;;;;;43.60;19.58;100404.59;5035404;28;99211;-88
2023/08/24 09:44:05;;;;;;;20.35;18.92;;;;;;;42.47;20.45;100405.69;5035275;28;98761;-88
2023/08/24 09:46:31;;;;;;;19.88;18.45;;;;;;;41.39;20.70;100413.66;5035839;28;96890;-87
2023/08/24 09:48:59;;;;;;;19.60;18.20;;;;;;;41.30;21.92;100406.94;5036774;28;96925;-87
2023/08/24 09:51:26;;;;;;;19.90;18.52;;;;;;;40.81;22.13;100396.53;5013814;28;98942;-87
2023/08/24 09:53:53;;;;;;;20.23;18.92;;;;;;;40.91;22.61;100402.19;5028497;27;98561;-84
2023/08/24 09:56:20;;;;;;;19.20;17.85;;;;;;;40.74;22.49;100401.38;5003396;28;96822;-84
2023/08/24 09:58:46;;;;;;;20.73;19.00;;;;;;;40.55;22.15;100389.72;5017607;28;96759;-83
2023/08/24 10:01:11;;;;;;;19.90;18.60;;;;;;;39.82;22.95;100372.94;5016026;28;99187;-86
2023/08/24 10:03:40;;;;;;;21.02;19.63;;;;;;;39.90;22.48;100385.47;5034866;28;99565;-86
2023/08/24 10:06:08;;;;;;;20.90;19.23;;;;;;;39.66;23.19;100387.44;5035045;28;96748;-87
2023/08/24 10:08:39;;;;;;;19.75;18.35;;;;;;;39.41;23.16;100376.72;5017029;28;96820;-86
2023/08/24 10:11:05;;;;;;;19.58;18.35;;;;;;;39.43;23.71;100379.25;5015020;28;98924;-87
2023/08/24 10:13:50;;;;;;;19.83;18.52;;;;;;;39.08;23.88;100380.06;5021373;28;98442;-87
2023/08/24 10:16:16;;;;;;;19.50;17.98;;;;;;;39.04;24.78;100374.25;5016772;28;96739;-87
2023/08/24 10:18:41;;;;;;;19.75;18.17;;;;;;;38.89;24.07;100371.94;5035502;28;96741;-87
2023/08/24 10:21:08;;;;;;;20.70;19.05;;;;;;;38.71;24.62;100369.28;5016403;28;98723;-87
2023/08/24 10:23:34;;;;;;;19.20;18.00;;;;;;;38.48;24.99;100367.31;5034345;27;98987;-87
2023/08/24 10:26:02;;;;;;;19.80;18.40;;;;;;;38.34;24.91;100358.47;5016109;28;96878;-86
2023/08/24 10:28:28;;;;;;;20.13;18.23;;;;;;;38.14;24.70;100357.88;5034363;28;97383;-87
2023/08/24 10:30:54;;;;;;;18.98;17.73;;;;;;;38.08;25.33;100362.44;5010165;28;98258;-87
2023/08/24 10:33:20;;;;;;;20.67;19.17;;;;;;;38.03;25.40;100365.03;5026506;28;98378;-86
2023/08/24 10:35:47;;;;;;;20.83;19.10;;;;;;;37.85;25.59;100360.38;5016802;28;96841;-86
2023/08/24 10:38:31;;;;;;;20.83;19.30;;;;;;;37.66;25.73;100372.41;5035761;27;97171;-86
2023/08/24 10:41:04;;;;;;;20.23;18.75;;;;;;;37.25;25.35;100368.44;5016416;28;98712;-86
2023/08/24 10:43:29;;;;;;;20.13;18.63;;;;;;;36.27;25.99;100361.59;5034639;27;98767;-87
2023/08/24 10:45:59;;;;;;;19.35;18.05;;;;;;;36.57;26.66;100364.59;5038347;27;96810;-87
2023/08/24 10:48:29;;;;;;;19.27;17.67;;;;;;;36.56;26.92;100362.06;5045874;27;96822;-86
2023/08/24 10:51:22;;;;;;;19.83;18.33;;;;;;;35.85;26.99;100352.97;5037108;28;99453;-87
2023/08/24 10:53:55;;;;;;;19.88;18.15;;;;;;;36.03;28.04;100354.97;5033738;28;97794;-87
2023/08/24 10:56:29;;;;;;;19.13;17.90;;;;;;;36.09;28.75;100353.31;5020083;27;96775;-87
2023/08/24 10:59:17;;;;;;;19.17;17.73;;;;;;;36.00;28.29;100355.44;5034296;27;96739;-88
2023/08/24 11:01:58;;;;;;;20.20;18.50;;;;;;;35.73;28.02;100346.53;5021687;28;100191;-88
2023/08/24 11:04:23;;;;;;;19.70;18.35;;;;;;;35.38;28.07;100352.28;5029792;27;98979;-88
2023/08/24 11:06:56;;;;;;;19.55;18.25;;;;;;;35.10;29.01;100350.66;5033793;27;96874;-87
2023/08/24 11:09:23;;;;;;;19.40;18.17;;;;;;;35.19;28.66;100344.97;5034249;27;96651;-87